Terminal Aerodrome Forecast
Issued by NWS Wakefield, VA

Home | Current Version | Previous Version | Text Only | Print | Product List | Glossary On
Versions: 1 2 3 4 5 6 7 8 9 10 11 12 13 14 15 16 17 18 19 20 21 22 23 24 25 26 27 28 29 30 31
116
FTUS41 KAKQ 060115 AAA
TAFECG
TAF AMD
KECG 060115Z 0601/0624 02008KT 2SM +RA BR BKN008 OVC015
     FM060200 01008KT 5SM BR BKN015 OVC050
      TEMPO 0602/0605 2SM -RA BR OVC008
     FM060500 34006KT 5SM -RA BR OVC008
     FM061000 28004KT P6SM OVC006
     FM061500 30008KT P6SM BKN025 OVC050=

USA.gov is the U.S. government's official web portal to all federal, state and local government web resources and services.